Česky Dansk Deutsch English Español Suomi Français Magyar Italiano Nederlands norsk Polski Português svenska Türkçe

 

Het Weer

Chambery / Aix-Les-Bains (Frankrijk)

01:30, 17 augustus 2016 (GMT)

NWNNE
WE
SWSSE
Home            
Chambery / Aix-Les-Bains Grenoble / St. Geoirs Amberieu Lyon / Satolas Geneve-Cointrin Lyon / Bron Macon Lausanne St-Etienne Boutheon Sion Pian Rosa Torino / Caselle Montelimar Payerne Dole Tavaux Torino / Bric Della Croce Saint-Yan Neuchatel Les Eplatures St-Auban-Sur-Durance Le Puy Besancon Cuneo / Levaldigi

Om een weerknop op uw website of weblog te plaatsen, copieer onderstaande code en plak die in uw pagina. In het eerste vakje staat HTML-code, in het tweede vakje UBB-code.


Add to Google

Details

Visibility:Greater than 10000 m, 10 km, 32800 ft, 6.2 miles
Clouds:CAVOC
Temperature:17°C, 63°F
Dew-point:15°C, 59°F
Atmospheric pressure:1013 hPa, 759.8 mmHg, 29.91 inHg, 1.000 atm
Relative humidity:88.0 %
METAR:LFLB 170130Z AUTO 00000KT CAVOK 17/15 Q1013 NOSIG

Snelkoppelingen

Actuele weersinformatie van de hele wereld. Voeg locaties toe met het plus (+) symbool. Deze snelkoppelingen kunnen worden toegevoegd aan Google.

Lid van de Technetium groep

website free tracking
StatCounter NetStat W3C Validator

25-11-2020 08:38:47
astro.technetium.be money.technetium.be phote.technetium.be tafeltennistafel.technetium.be www.ligfiets.net